createdAt,value
2024-03-02T00:00:22.923Z,99349.34
2024-03-02T00:02:53.169Z,99347.25
2024-03-02T00:05:25.459Z,99343.88
2024-03-02T00:07:57.599Z,99349.75
2024-03-02T00:10:30.570Z,99338.72
2024-03-02T00:13:00.718Z,99340.41
2024-03-02T00:15:45.967Z,99333.97
2024-03-02T00:18:15.107Z,99329.00
2024-03-02T00:20:44.358Z,99335.75
2024-03-02T00:23:14.927Z,99324.84
2024-03-02T00:25:50.815Z,99333.06
2024-03-02T00:28:26.152Z,99325.25
2024-03-02T00:31:08.520Z,99326.75
2024-03-02T00:33:37.369Z,99328.41
2024-03-02T00:36:05.112Z,99326.63
2024-03-02T00:38:33.353Z,99324.97
2024-03-02T00:41:01.564Z,99332.81
2024-03-02T00:44:07.275Z,99333.41
2024-03-02T00:46:35.791Z,99330.91
2024-03-02T00:49:06.829Z,99332.09
2024-03-02T00:51:37.790Z,99337.19
2024-03-02T00:54:10.240Z,99330.63
2024-03-02T00:56:36.856Z,99328.44
2024-03-02T00:59:03.945Z,99328.09
2024-03-02T01:01:33.068Z,99322.25
2024-03-02T01:03:59.755Z,99320.13
2024-03-02T01:06:28.090Z,99326.88
2024-03-02T01:08:54.948Z,99331.94
2024-03-02T01:11:24.795Z,99338.84
2024-03-02T01:13:52.119Z,99344.50
2024-03-02T01:16:18.627Z,99338.69
2024-03-02T01:18:45.434Z,99347.09
2024-03-02T01:21:12.387Z,99343.13
2024-03-02T01:23:38.968Z,99349.19
2024-03-02T01:26:05.660Z,99353.56
2024-03-02T01:28:32.332Z,99349.19
2024-03-02T01:30:59.139Z,99347.75
2024-03-02T01:33:25.733Z,99348.34
2024-03-02T01:35:52.346Z,99338.72
2024-03-02T01:38:18.767Z,99340.69
2024-03-02T01:40:47.971Z,99338.41
2024-03-02T01:43:14.729Z,99333.63
2024-03-02T01:45:41.404Z,99328.28
2024-03-02T01:48:08.755Z,99328.28
2024-03-02T01:50:37.213Z,99319.91
2024-03-02T01:53:04.352Z,99324.53
2024-03-02T01:55:31.868Z,99322.03
2024-03-02T01:57:59.473Z,99327.34
2024-03-02T02:00:27.416Z,99324.28
2024-03-02T02:02:54.528Z,99312.19
2024-03-02T02:05:21.157Z,99315.97
2024-03-02T02:07:47.664Z,99310.53
2024-03-02T02:10:14.252Z,99308.16
2024-03-02T02:12:44.623Z,99297.69
2024-03-02T02:15:27.479Z,99297.19
2024-03-02T02:17:55.041Z,99297.66
2024-03-02T02:20:21.725Z,99299.31
2024-03-02T02:23:06.437Z,99295.47
2024-03-02T02:25:33.221Z,99299.03
2024-03-02T02:28:00.253Z,99294.53
2024-03-02T02:30:35.072Z,99299.13
2024-03-02T02:33:02.207Z,99291.66
2024-03-02T02:35:29.480Z,99293.03
2024-03-02T02:37:58.211Z,99286.47
2024-03-02T02:40:25.088Z,99284.94
2024-03-02T02:42:53.694Z,99281.75
2024-03-02T02:45:20.952Z,99285.06
2024-03-02T02:47:49.507Z,99284.13
2024-03-02T02:50:16.241Z,99274.88
2024-03-02T02:52:46.058Z,99277.88
2024-03-02T02:55:14.167Z,99276.03
2024-03-02T02:57:43.638Z,99275.69
2024-03-02T03:00:18.405Z,99274.97
2024-03-02T03:02:51.498Z,99267.88
2024-03-02T03:05:19.183Z,99269.38
2024-03-02T03:07:51.034Z,99266.84
2024-03-02T03:10:24.340Z,99276.69
2024-03-02T03:12:50.833Z,99261.44
2024-03-02T03:15:17.807Z,99260.50
2024-03-02T03:17:48.487Z,99272.34
2024-03-02T03:20:16.405Z,99266.41
2024-03-02T03:22:43.058Z,99262.84
2024-03-02T03:25:11.992Z,99257.31
2024-03-02T03:27:38.782Z,99256.94
2024-03-02T03:30:07.704Z,99262.78
2024-03-02T03:32:34.518Z,99248.78
2024-03-02T03:35:01.017Z,99248.97
2024-03-02T03:37:33.836Z,99244.22
2024-03-02T03:40:02.339Z,99248.75
2024-03-02T03:42:28.976Z,99246.44
2024-03-02T03:44:55.390Z,99246.91
2024-03-02T03:47:21.818Z,99242.63
2024-03-02T03:49:48.383Z,99251.00
2024-03-02T03:52:14.998Z,99251.66
2024-03-02T03:54:44.222Z,99254.00
2024-03-02T03:57:10.814Z,99242.50
2024-03-02T03:59:38.378Z,99235.34
2024-03-02T04:02:05.514Z,99247.38
2024-03-02T04:04:31.998Z,99249.03
2024-03-02T04:06:58.738Z,99253.13
2024-03-02T04:09:27.374Z,99251.22
2024-03-02T04:11:54.225Z,99252.66
2024-03-02T04:14:21.011Z,99248.34
2024-03-02T04:16:47.925Z,99253.50
2024-03-02T04:19:14.600Z,99252.56
2024-03-02T04:21:41.512Z,99255.34
2024-03-02T04:24:10.512Z,99251.19
2024-03-02T04:26:37.053Z,99253.19
2024-03-02T04:29:03.631Z,99250.69
2024-03-02T04:31:31.232Z,99246.66
2024-03-02T04:33:57.689Z,99255.25
2024-03-02T04:36:26.733Z,99258.81
2024-03-02T04:38:53.248Z,99257.75
2024-03-02T04:41:19.749Z,99258.81
2024-03-02T04:43:46.185Z,99262.38
2024-03-02T04:46:15.011Z,99258.94
2024-03-02T04:48:41.617Z,99258.56
2024-03-02T04:51:08.383Z,99258.53
2024-03-02T04:53:35.283Z,99258.72
2024-03-02T04:56:37.044Z,99253.22
2024-03-02T04:59:04.814Z,99267.78
2024-03-02T05:01:31.368Z,99276.34
2024-03-02T05:03:57.987Z,99278.13
2024-03-02T05:06:30.315Z,99286.50
2024-03-02T05:08:57.707Z,99282.09
2024-03-02T05:11:47.284Z,99288.09
2024-03-02T05:14:14.044Z,99285.41
2024-03-02T05:16:41.379Z,99292.16
2024-03-02T05:19:10.654Z,99290.91
2024-03-02T05:21:37.315Z,99293.25
2024-03-02T05:24:04.444Z,99290.22
2024-03-02T05:26:31.010Z,99289.22
2024-03-02T05:28:57.564Z,99288.94
2024-03-02T05:31:24.054Z,99288.31
2024-03-02T05:33:54.884Z,99287.69
2024-03-02T05:36:23.753Z,99301.91
2024-03-02T05:38:50.435Z,99294.19
2024-03-02T05:41:18.147Z,99299.09
2024-03-02T05:43:44.679Z,99294.31
2024-03-02T05:46:13.721Z,99296.09
2024-03-02T05:48:40.524Z,99296.09
2024-03-02T05:51:07.098Z,99287.94
2024-03-02T05:53:39.110Z,99288.34
2024-03-02T05:56:08.030Z,99290.00
2024-03-02T05:58:55.805Z,99290.63
2024-03-02T06:01:29.489Z,99285.09
2024-03-02T06:03:57.399Z,99283.72
2024-03-02T06:06:24.555Z,99284.03
2024-03-02T06:08:51.980Z,99287.59
2024-03-02T06:11:20.609Z,99296.84
2024-03-02T06:13:47.422Z,99304.41
2024-03-02T06:16:13.915Z,99299.38
2024-03-02T06:18:41.435Z,99295.44
2024-03-02T06:21:13.435Z,99292.31
2024-03-02T06:23:40.830Z,99301.69
2024-03-02T06:26:07.861Z,99302.09
2024-03-02T06:28:36.927Z,99303.75
2024-03-02T06:31:03.780Z,99307.00
2024-03-02T06:33:30.414Z,99306.19
2024-03-02T06:35:57.011Z,99317.31
2024-03-02T06:38:26.851Z,99312.34
2024-03-02T06:40:53.503Z,99314.19
2024-03-02T06:43:24.358Z,99315.84
2024-03-02T06:45:54.076Z,99314.19
2024-03-02T06:48:23.521Z,99313.56
2024-03-02T06:50:51.396Z,99317.72
2024-03-02T06:53:18.861Z,99321.06
2024-03-02T06:55:48.001Z,99321.06
2024-03-02T06:58:19.100Z,99320.03
2024-03-02T07:00:45.786Z,99319.00
2024-03-02T07:03:12.548Z,99317.09
2024-03-02T07:05:38.988Z,99324.81
2024-03-02T07:08:06.745Z,99328.97
2024-03-02T07:10:33.467Z,99324.94
2024-03-02T07:13:00.165Z,99327.53
2024-03-02T07:15:30.490Z,99317.09
2024-03-02T07:17:57.110Z,99318.03
2024-03-02T07:20:23.838Z,99317.31
2024-03-02T07:22:50.308Z,99319.31
2024-03-02T07:27:46.429Z,99307.94
2024-03-02T07:30:18.787Z,99317.31
2024-03-02T07:32:47.908Z,99319.59
2024-03-02T07:35:15.151Z,99326.91
2024-03-02T07:37:44.607Z,99330.28
2024-03-02T07:40:15.239Z,99335.69
2024-03-02T07:42:41.945Z,99334.06
2024-03-02T07:45:08.935Z,99336.75
2024-03-02T07:47:36.187Z,99342.91
2024-03-02T07:50:03.022Z,99339.50
2024-03-02T07:52:30.132Z,99348.69
2024-03-02T07:54:56.866Z,99342.88
2024-03-02T07:57:23.755Z,99356.47
2024-03-02T07:59:51.689Z,99350.41
2024-03-02T08:02:18.834Z,99343.78
2024-03-02T08:04:47.120Z,99348.44
2024-03-02T08:07:16.534Z,99348.19
2024-03-02T08:09:43.184Z,99352.56
2024-03-02T08:12:11.904Z,99354.66
2024-03-02T08:14:38.379Z,99346.25
2024-03-02T08:17:10.465Z,99332.31
2024-03-02T08:19:42.253Z,99333.69
2024-03-02T08:22:13.352Z,99334.13
2024-03-02T08:24:39.902Z,99327.25
2024-03-02T08:27:10.433Z,99326.44
2024-03-02T08:29:39.224Z,99312.84
2024-03-02T08:32:08.276Z,99305.00
2024-03-02T08:34:36.601Z,99300.03
2024-03-02T08:37:03.825Z,99290.09
2024-03-02T08:39:30.733Z,99284.13
2024-03-02T08:41:58.178Z,99279.72
2024-03-02T08:44:27.148Z,99279.38
2024-03-02T08:46:54.117Z,99273.06
2024-03-02T08:49:26.652Z,99265.88
2024-03-02T08:51:56.674Z,99265.81
2024-03-02T08:54:33.561Z,99264.41
2024-03-02T08:57:00.077Z,99254.75
2024-03-02T08:59:28.842Z,99253.84
2024-03-02T09:02:01.896Z,99258.34
2024-03-02T09:04:34.680Z,99239.97
2024-03-02T09:07:01.706Z,99227.91
2024-03-02T09:09:33.109Z,99233.22
2024-03-02T09:12:02.400Z,99233.09
2024-03-02T09:14:29.015Z,99236.50
2024-03-02T09:16:55.760Z,99245.28
2024-03-02T09:19:22.208Z,99238.00
2024-03-02T09:21:48.839Z,99225.19
2024-03-02T09:24:17.727Z,99229.06
2024-03-02T09:26:45.144Z,99229.56
2024-03-02T09:29:11.884Z,99234.47
2024-03-02T09:31:43.652Z,99232.22
2024-03-02T09:34:10.690Z,99229.06
2024-03-02T09:36:37.227Z,99214.66
2024-03-02T09:39:05.350Z,99224.31
2024-03-02T09:41:34.004Z,99222.44
2024-03-02T09:44:03.377Z,99228.97
2024-03-02T09:46:30.866Z,99227.25
2024-03-02T09:48:57.664Z,99222.78
2024-03-02T09:51:24.627Z,99222.16
2024-03-02T09:53:56.735Z,99227.16
2024-03-02T09:56:24.996Z,99223.81
2024-03-02T09:58:51.455Z,99228.03
2024-03-02T10:01:18.253Z,99209.69
2024-03-02T10:03:46.798Z,99217.84
2024-03-02T10:06:21.568Z,99214.56
2024-03-02T10:08:49.888Z,99208.41
2024-03-02T10:11:34.014Z,99205.88
2024-03-02T10:14:09.262Z,99206.75
2024-03-02T10:16:41.433Z,99204.31
2024-03-02T10:19:25.108Z,99198.91
2024-03-02T10:21:53.054Z,99199.59
2024-03-02T10:24:20.771Z,99203.06
2024-03-02T10:26:49.897Z,99203.06
2024-03-02T10:29:17.871Z,99199.00
2024-03-02T10:31:48.417Z,99190.44
2024-03-02T10:34:16.983Z,99202.31
2024-03-02T10:36:46.551Z,99199.34
2024-03-02T10:39:16.460Z,99197.25
2024-03-02T10:41:43.229Z,99189.06
2024-03-02T10:44:10.644Z,99190.88
2024-03-02T10:46:38.172Z,99192.88
2024-03-02T10:49:08.809Z,99192.56
2024-03-02T10:51:37.928Z,99182.81
2024-03-02T10:54:07.936Z,99181.34
2024-03-02T10:56:42.438Z,99182.00
2024-03-02T10:59:27.598Z,99175.59
2024-03-02T11:02:14.893Z,99176.25
2024-03-02T11:04:45.441Z,99176.88
2024-03-02T11:07:13.336Z,99177.19
2024-03-02T11:10:10.764Z,99179.56
2024-03-02T11:12:43.745Z,99179.25
2024-03-02T11:15:22.273Z,99178.44
2024-03-02T11:17:49.812Z,99174.16
2024-03-02T11:20:20.101Z,99167.84
2024-03-02T11:22:48.271Z,99164.22
2024-03-02T11:25:33.201Z,99161.41
2024-03-02T11:28:04.824Z,99164.84
2024-03-02T11:30:34.745Z,99157.75
2024-03-02T11:33:13.333Z,99145.66
2024-03-02T11:35:47.844Z,99144.53
2024-03-02T11:38:14.659Z,99139.06
2024-03-02T11:40:41.871Z,99138.25
2024-03-02T11:43:09.406Z,99137.41
2024-03-02T11:45:41.226Z,99125.31
2024-03-02T11:48:13.478Z,99118.16
2024-03-02T11:50:48.354Z,99114.53
2024-03-02T11:53:15.466Z,99123.81
2024-03-02T11:55:42.332Z,99109.91
2024-03-02T11:58:09.226Z,99108.88
2024-03-02T12:00:36.589Z,99101.91
2024-03-02T12:03:06.071Z,99098.44
2024-03-02T12:05:33.562Z,99087.00
2024-03-02T12:08:05.030Z,99087.31
2024-03-02T12:10:32.552Z,99089.59
2024-03-02T12:13:00.097Z,99091.28
2024-03-02T12:15:38.011Z,99091.91
2024-03-02T12:18:05.803Z,99086.91
2024-03-02T12:20:36.209Z,99072.00
2024-03-02T12:23:05.426Z,99089.81
2024-03-02T12:25:34.615Z,99091.56
2024-03-02T12:28:03.299Z,99081.06
2024-03-02T12:30:31.847Z,99081.88
2024-03-02T12:32:58.391Z,99075.84
2024-03-02T12:35:26.602Z,99083.94
2024-03-02T12:37:54.888Z,99082.59
2024-03-02T12:40:23.787Z,99074.56
2024-03-02T12:42:53.319Z,99076.22
2024-03-02T12:45:25.293Z,99073.91
2024-03-02T12:47:55.081Z,99061.94
2024-03-02T12:50:22.477Z,99064.16
2024-03-02T12:52:56.555Z,99063.97
2024-03-02T12:55:24.394Z,99064.91
2024-03-02T12:57:53.304Z,99065.25
2024-03-02T13:00:22.561Z,99068.06
2024-03-02T13:02:53.246Z,99062.78
2024-03-02T13:05:20.847Z,99067.41
2024-03-02T13:07:50.571Z,99072.34
2024-03-02T13:10:17.984Z,99068.16
2024-03-02T13:12:47.043Z,99070.66
2024-03-02T13:15:18.167Z,99057.53
2024-03-02T13:17:48.475Z,99068.03
2024-03-02T13:20:16.276Z,99065.50
2024-03-02T13:22:43.317Z,99062.59
2024-03-02T13:25:11.565Z,99061.63
2024-03-02T13:27:38.551Z,99047.50
2024-03-02T13:30:07.041Z,99047.28
2024-03-02T13:32:33.745Z,99052.22
2024-03-02T13:35:00.424Z,99045.22
2024-03-02T13:37:26.969Z,99041.66
2024-03-02T13:39:53.562Z,99040.00
2024-03-02T13:42:20.071Z,99039.00
2024-03-02T13:44:48.487Z,99034.22
2024-03-02T13:47:15.653Z,99034.22
2024-03-02T13:49:48.217Z,99035.41
2024-03-02T13:52:16.209Z,99037.09
2024-03-02T13:54:47.825Z,99029.13
2024-03-02T13:57:14.939Z,99031.81
2024-03-02T13:59:43.388Z,99029.25
2024-03-02T14:02:10.586Z,99030.19
2024-03-02T14:04:38.142Z,99024.31
2024-03-02T14:07:09.804Z,99019.72
2024-03-02T14:09:38.871Z,99019.94
2024-03-02T14:12:06.886Z,99023.53
2024-03-02T14:14:35.783Z,99028.91
2024-03-02T14:17:07.809Z,99016.34
2024-03-02T14:19:34.484Z,99018.97
2024-03-02T14:22:01.427Z,99014.41
2024-03-02T14:24:29.835Z,99002.75
2024-03-02T14:27:05.513Z,99006.88
2024-03-02T14:29:38.951Z,99002.22
2024-03-02T14:32:08.565Z,99004.16
2024-03-02T14:34:37.027Z,99003.84
2024-03-02T14:37:04.202Z,98998.63
2024-03-02T14:39:35.656Z,99000.63
2024-03-02T14:42:02.728Z,98993.69
2024-03-02T14:44:29.311Z,98991.50
2024-03-02T14:46:55.922Z,98988.28
2024-03-02T14:49:22.464Z,98991.97
2024-03-02T14:51:50.987Z,98987.41
2024-03-02T14:54:17.495Z,98970.06
2024-03-02T14:56:44.089Z,98978.81
2024-03-02T14:59:11.946Z,98966.56
2024-03-02T15:01:39.112Z,98968.41
2024-03-02T15:04:06.014Z,98968.94
2024-03-02T15:06:35.722Z,98962.00
2024-03-02T15:09:02.837Z,98970.03
2024-03-02T15:11:29.931Z,98965.81
2024-03-02T15:13:59.024Z,98960.25
2024-03-02T15:16:25.631Z,98956.47
2024-03-02T15:18:54.404Z,98964.25
2024-03-02T15:21:22.339Z,98954.09
2024-03-02T15:23:50.071Z,98956.38
2024-03-02T15:26:16.726Z,98961.22
2024-03-02T15:28:43.825Z,98959.44
2024-03-02T15:31:12.828Z,98961.34
2024-03-02T15:33:39.511Z,98960.03
2024-03-02T15:36:06.919Z,98968.38
2024-03-02T15:38:35.617Z,98952.97
2024-03-02T15:41:05.446Z,98969.88
2024-03-02T15:43:32.999Z,98968.59
2024-03-02T15:46:04.617Z,98970.59
2024-03-02T15:48:31.207Z,98967.13
2024-03-02T15:51:00.926Z,98962.69
2024-03-02T15:53:33.181Z,98964.88
2024-03-02T15:55:59.873Z,98967.75
2024-03-02T15:58:26.431Z,98965.59
2024-03-02T16:00:52.986Z,98968.31
2024-03-02T16:03:22.115Z,98971.63
2024-03-02T16:05:48.534Z,98972.00
2024-03-02T16:08:15.053Z,98975.16
2024-03-02T16:10:44.121Z,98972.50
2024-03-02T16:13:10.721Z,98972.84
2024-03-02T16:15:37.404Z,98973.88
2024-03-02T16:18:04.440Z,98965.63
2024-03-02T16:20:31.330Z,98966.97
2024-03-02T16:22:57.908Z,98979.66
2024-03-02T16:25:26.368Z,98981.53
2024-03-02T16:27:53.273Z,98978.53
2024-03-02T16:30:21.161Z,98984.97
2024-03-02T16:32:48.872Z,98984.00
2024-03-02T16:35:16.471Z,98988.97
2024-03-02T16:37:43.420Z,98986.16
2024-03-02T16:40:13.549Z,98978.25
2024-03-02T16:42:40.865Z,98992.75
2024-03-02T16:45:07.794Z,98985.34
2024-03-02T16:47:34.314Z,98986.66
2024-03-02T16:50:01.008Z,98990.47
2024-03-02T16:52:30.002Z,98977.44
2024-03-02T16:54:57.317Z,98985.50
2024-03-02T16:57:24.220Z,98975.63
2024-03-02T16:59:50.736Z,98978.56
2024-03-02T17:02:17.763Z,98976.09
2024-03-02T17:04:44.250Z,98976.94
2024-03-02T17:07:13.130Z,98972.47
2024-03-02T17:09:42.162Z,98965.19
2024-03-02T17:12:08.726Z,98965.03
2024-03-02T17:14:35.198Z,98969.50
2024-03-02T17:17:02.098Z,98966.19
2024-03-02T17:19:30.854Z,98965.88
2024-03-02T17:21:57.394Z,98965.53
2024-03-02T17:24:23.891Z,98969.16
2024-03-02T17:26:50.344Z,98972.28
2024-03-02T17:29:16.864Z,98968.16
2024-03-02T17:31:43.338Z,98967.34
2024-03-02T17:34:10.924Z,98965.84
2024-03-02T17:36:37.480Z,98974.59
2024-03-02T17:39:06.856Z,98968.34
2024-03-02T17:41:33.644Z,98967.34
2024-03-02T17:44:00.087Z,98967.34
2024-03-02T17:46:29.141Z,98957.44
2024-03-02T17:48:55.692Z,98955.63
2024-03-02T17:51:22.670Z,98942.94
2024-03-02T17:53:53.972Z,98943.06
2024-03-02T17:56:20.452Z,98925.59
2024-03-02T17:58:46.945Z,98922.13
2024-03-02T18:01:13.566Z,98923.94
2024-03-02T18:03:40.157Z,98920.47
2024-03-02T18:06:06.905Z,98929.06
2024-03-02T18:08:36.110Z,98921.81
2024-03-02T18:11:04.664Z,98914.84
2024-03-02T18:13:31.418Z,98912.69
2024-03-02T18:15:58.274Z,98902.09
2024-03-02T18:18:24.897Z,98900.94
2024-03-02T18:20:52.029Z,98911.00
2024-03-02T18:23:22.714Z,98911.28
2024-03-02T18:25:49.359Z,98908.47
2024-03-02T18:28:15.949Z,98911.47
2024-03-02T18:30:43.020Z,98916.59
2024-03-02T18:33:09.571Z,98926.00
2024-03-02T18:35:37.443Z,98934.91
2024-03-02T18:38:04.923Z,98941.84
2024-03-02T18:40:31.832Z,98940.88
2024-03-02T18:43:00.238Z,98955.75
2024-03-02T18:45:26.830Z,98953.78
2024-03-02T18:47:55.873Z,98967.00
2024-03-02T18:50:22.495Z,98965.19
2024-03-02T18:52:52.770Z,98976.88
2024-03-02T18:55:38.109Z,98969.31
2024-03-02T18:58:05.133Z,98978.38
2024-03-02T19:00:31.993Z,98984.50
2024-03-02T19:03:01.403Z,98972.94
2024-03-02T19:05:30.626Z,98976.75
2024-03-02T19:07:57.124Z,98988.13
2024-03-02T19:10:23.619Z,98985.47
2024-03-02T19:12:50.547Z,98986.66
2024-03-02T19:15:17.522Z,98996.06
2024-03-02T19:17:44.163Z,98995.41
2024-03-02T19:20:12.784Z,98990.47
2024-03-02T19:25:13.183Z,98987.13
2024-03-02T19:27:39.792Z,98988.81
2024-03-02T19:30:08.777Z,98995.75
2024-03-02T19:32:35.525Z,99008.41
2024-03-02T19:35:02.118Z,98999.84
2024-03-02T19:37:28.654Z,98999.31
2024-03-02T19:39:55.218Z,98996.00
2024-03-02T19:42:21.739Z,99001.94
2024-03-02T19:44:48.214Z,99008.19
2024-03-02T19:47:21.439Z,99007.81
2024-03-02T19:49:48.586Z,99015.72
2024-03-02T19:52:15.676Z,99014.72
2024-03-02T19:54:42.758Z,99010.56
2024-03-02T19:57:11.523Z,98999.53
2024-03-02T19:59:40.442Z,99003.78
2024-03-02T20:02:11.380Z,99003.78
2024-03-02T20:04:39.778Z,98998.53
2024-03-02T20:07:06.351Z,98982.69
2024-03-02T20:09:34.238Z,98995.91
2024-03-02T20:12:01.120Z,98987.53
2024-03-02T20:14:27.608Z,98982.75
2024-03-02T20:16:57.395Z,98980.13
2024-03-02T20:19:24.465Z,98968.25
2024-03-02T20:21:50.919Z,98963.78
2024-03-02T20:24:17.446Z,98964.63
2024-03-02T20:26:44.206Z,98964.47
2024-03-02T20:29:10.736Z,98969.06
2024-03-02T20:31:39.053Z,98959.03
2024-03-02T20:34:05.692Z,98948.78
2024-03-02T20:36:34.844Z,98951.72
2024-03-02T20:39:01.379Z,98936.56
2024-03-02T20:41:27.967Z,98941.50
2024-03-02T20:43:54.407Z,98945.78
2024-03-02T20:46:21.035Z,98950.41
2024-03-02T20:48:50.226Z,98939.84
2024-03-02T20:51:16.968Z,98927.00
2024-03-02T20:53:43.430Z,98919.78
2024-03-02T20:56:09.976Z,98911.50
2024-03-02T20:58:36.403Z,98918.13
2024-03-02T21:01:04.013Z,98918.41
2024-03-02T21:03:30.531Z,98927.66
2024-03-02T21:05:57.107Z,98924.84
2024-03-02T21:08:24.492Z,98926.16
2024-03-02T21:10:50.990Z,98927.66
2024-03-02T21:13:18.084Z,98928.28
2024-03-02T21:15:45.952Z,98934.53
2024-03-02T21:18:14.991Z,98933.72
2024-03-02T21:20:41.636Z,98934.22
2024-03-02T21:23:12.408Z,98940.13
2024-03-02T21:25:40.471Z,98935.19
2024-03-02T21:28:07.042Z,98945.41
2024-03-02T21:30:36.459Z,98940.47
2024-03-02T21:33:05.001Z,98942.59
2024-03-02T21:35:34.822Z,98948.81
2024-03-02T21:38:04.466Z,98943.41
2024-03-02T21:40:31.993Z,98942.94
2024-03-02T21:42:59.618Z,98942.09
2024-03-02T21:45:32.110Z,98942.44
2024-03-02T21:47:58.617Z,98945.72
2024-03-02T21:50:28.963Z,98942.72
2024-03-02T21:52:56.167Z,98946.34
2024-03-02T21:55:22.809Z,98940.41
2024-03-02T21:57:55.836Z,98942.38
2024-03-02T22:00:22.503Z,98942.38
2024-03-02T22:02:56.657Z,98943.34
2024-03-02T22:05:25.577Z,98943.34
2024-03-02T22:07:52.169Z,98944.31
2024-03-02T22:10:19.240Z,98953.84
2024-03-02T22:12:46.769Z,98952.53
2024-03-02T22:15:15.529Z,98951.88
2024-03-02T22:17:42.122Z,98960.75
2024-03-02T22:20:09.232Z,98956.44
2024-03-02T22:22:38.716Z,98960.44
2024-03-02T22:25:06.322Z,98957.38
2024-03-02T22:27:35.686Z,98955.06
2024-03-02T22:30:03.313Z,98953.69
2024-03-02T22:32:48.663Z,98950.56
2024-03-02T22:35:15.166Z,98953.63
2024-03-02T22:37:46.484Z,98952.63
2024-03-02T22:40:13.220Z,98957.63
2024-03-02T22:42:39.860Z,98954.91
2024-03-02T22:45:07.086Z,98950.63
2024-03-02T22:47:33.719Z,98946.34
2024-03-02T22:50:00.158Z,98938.75
2024-03-02T22:52:26.609Z,98939.06
2024-03-02T22:54:53.166Z,98946.66
2024-03-02T22:57:20.199Z,98951.41
2024-03-02T22:59:50.957Z,98953.16
2024-03-02T23:02:18.842Z,98957.59
2024-03-02T23:04:48.510Z,98962.34
2024-03-02T23:07:20.470Z,98956.97
2024-03-02T23:09:47.371Z,98960.41
2024-03-02T23:12:14.280Z,98951.38
2024-03-02T23:14:44.182Z,98951.47
2024-03-02T23:17:13.278Z,98952.16
2024-03-02T23:19:39.858Z,98941.91
2024-03-02T23:22:06.639Z,98951.31
2024-03-02T23:24:34.061Z,98946.75
2024-03-02T23:27:01.393Z,98936.41
2024-03-02T23:29:28.023Z,98934.25
2024-03-02T23:31:54.426Z,98933.44
2024-03-02T23:34:21.043Z,98930.63
2024-03-02T23:36:47.783Z,98924.84
2024-03-02T23:39:34.323Z,98922.66
2024-03-02T23:42:00.814Z,98931.38
2024-03-02T23:44:27.499Z,98923.25
2024-03-02T23:46:54.102Z,98919.94
2024-03-02T23:49:21.516Z,98918.00
2024-03-02T23:51:48.015Z,98917.09
2024-03-02T23:54:14.575Z,98910.78
2024-03-02T23:56:41.168Z,98902.44
2024-03-02T23:59:07.980Z,98895.81
